Time;durP1;ratioP1;P1;durP2;ratioP2;P2;SDS_P1;SDS_P2;PMS_P1;PMS_P2;Temp;Humidity;BMP_temperature;BMP_pressure;BME280_temperature;BME280_humidity;BME280_pressure;Samples;Min_cycle;Max_cycle;Signal;HPM_P1;HPM_P2
2023/07/20 00:01:22;;;;;;;17.20;7.43;;;19.40;99.90;;;;;;5116491;28;20048;-58
2023/07/20 00:03:54;;;;;;;16.98;8.20;;;19.40;99.90;;;;;;5116739;28;20037;-58
2023/07/20 00:06:21;;;;;;;19.02;8.35;;;19.40;99.90;;;;;;5116864;28;20057;-58
2023/07/20 00:08:47;;;;;;;17.30;7.80;;;19.40;99.90;;;;;;5116573;28;20084;-58
2023/07/20 00:11:13;;;;;;;18.35;8.52;;;19.30;99.90;;;;;;5116739;28;20055;-58
2023/07/20 00:13:40;;;;;;;15.70;8.10;;;19.30;99.90;;;;;;5116555;28;20038;-58
2023/07/20 00:16:06;;;;;;;13.63;8.88;;;19.30;99.90;;;;;;5116576;28;20027;-58
2023/07/20 00:18:33;;;;;;;20.25;8.80;;;19.30;99.90;;;;;;5116552;28;20049;-59
2023/07/20 00:21:01;;;;;;;19.48;7.85;;;19.30;99.90;;;;;;5116446;28;20031;-59
2023/07/20 00:23:28;;;;;;;16.35;7.80;;;19.40;99.90;;;;;;5116076;28;20046;-59
2023/07/20 00:25:54;;;;;;;18.65;8.32;;;19.40;99.90;;;;;;5116523;28;20024;-58
2023/07/20 00:28:20;;;;;;;18.95;8.43;;;19.40;99.90;;;;;;5116417;28;20485;-58
2023/07/20 00:30:48;;;;;;;14.55;7.88;;;19.50;99.90;;;;;;5116180;28;20063;-59
2023/07/20 00:33:17;;;;;;;13.18;7.78;;;19.50;99.90;;;;;;5116326;28;20101;-59
2023/07/20 00:35:43;;;;;;;19.15;7.90;;;19.60;99.90;;;;;;5114886;28;20084;-59
2023/07/20 00:38:10;;;;;;;16.08;7.57;;;19.60;99.90;;;;;;5116200;28;20020;-59
2023/07/20 00:40:37;;;;;;;20.65;8.05;;;19.50;99.90;;;;;;5116239;28;20103;-59
2023/07/20 00:43:03;;;;;;;21.23;8.10;;;19.40;99.90;;;;;;5116050;28;20030;-58
2023/07/20 00:45:29;;;;;;;13.27;7.82;;;19.30;99.90;;;;;;5114594;28;20059;-59
2023/07/20 00:47:56;;;;;;;19.35;7.80;;;19.30;99.90;;;;;;5116041;28;20038;-59
2023/07/20 00:50:23;;;;;;;14.85;8.38;;;19.30;99.90;;;;;;5114495;28;20031;-59
2023/07/20 00:52:49;;;;;;;15.60;8.50;;;19.30;99.90;;;;;;5114602;28;20084;-58
2023/07/20 00:55:15;;;;;;;17.27;8.90;;;19.30;99.90;;;;;;5115897;28;20104;-59
2023/07/20 00:57:41;;;;;;;16.52;8.70;;;19.30;99.90;;;;;;5114436;28;20027;-59
2023/07/20 01:00:08;;;;;;;14.38;8.77;;;19.40;99.90;;;;;;5113658;28;20023;-59
2023/07/20 01:02:33;;;;;;;19.17;8.20;;;19.50;99.90;;;;;;5115772;28;20036;-59
2023/07/20 01:05:00;;;;;;;14.82;7.93;;;19.50;99.90;;;;;;5114303;28;20069;-59
2023/07/20 01:07:44;;;;;;;17.52;8.48;;;19.50;99.90;;;;;;5114336;28;20101;-59
2023/07/20 01:10:22;;;;;;;25.35;9.38;;;19.40;99.90;;;;;;5115458;28;20046;-59
2023/07/20 01:12:52;;;;;;;25.20;10.95;;;19.40;99.90;;;;;;5114277;28;20024;-59
2023/07/20 01:15:18;;;;;;;26.63;9.90;;;19.50;99.90;;;;;;5115659;28;20110;-59
2023/07/20 01:17:45;;;;;;;25.63;9.60;;;19.30;99.90;;;;;;5114164;28;20211;-59
2023/07/20 01:20:14;;;;;;;17.38;8.75;;;19.30;99.90;;;;;;5114122;28;20038;-59
2023/07/20 01:23:04;;;;;;;17.88;8.40;;;19.20;99.90;;;;;;5114229;28;20024;-59
2023/07/20 01:25:35;;;;;;;21.95;8.15;;;19.30;99.90;;;;;;5114109;28;20129;-59
2023/07/20 01:28:37;;;;;;;18.42;7.88;;;19.40;99.90;;;;;;5113886;28;20115;-59
2023/07/20 01:31:24;;;;;;;18.58;8.77;;;19.40;99.90;;;;;;5115300;28;20374;-59
2023/07/20 01:33:53;;;;;;;16.90;8.52;;;19.30;99.90;;;;;;5113961;28;20024;-59
2023/07/20 01:36:21;;;;;;;21.48;8.90;;;19.30;99.90;;;;;;5113906;28;20379;-59
2023/07/20 01:38:47;;;;;;;17.35;8.57;;;19.30;99.90;;;;;;5114006;28;20110;-59
2023/07/20 01:41:15;;;;;;;17.00;9.02;;;19.40;99.90;;;;;;5115087;28;20103;-59
2023/07/20 01:43:42;;;;;;;22.13;8.00;;;19.50;99.90;;;;;;5115115;28;20037;-59
2023/07/20 01:46:08;;;;;;;22.58;9.02;;;19.50;99.90;;;;;;5113750;28;20469;-59
2023/07/20 01:48:33;;;;;;;16.58;7.78;;;19.40;99.90;;;;;;5113704;28;20031;-59
2023/07/20 01:51:01;;;;;;;21.73;9.10;;;19.40;99.90;;;;;;5113601;28;20032;-59
2023/07/20 01:53:27;;;;;;;17.05;8.50;;;19.40;99.90;;;;;;5113775;28;20023;-59
2023/07/20 01:55:54;;;;;;;18.50;7.65;;;19.50;99.90;;;;;;5113697;28;20030;-59
2023/07/20 01:58:20;;;;;;;16.55;8.02;;;19.60;99.90;;;;;;5113576;28;20028;-59
2023/07/20 02:00:46;;;;;;;15.05;8.68;;;19.50;99.90;;;;;;5114847;28;20511;-59
2023/07/20 02:03:12;;;;;;;53.65;34.15;;;19.40;99.90;;;;;;5113640;28;20031;-59
2023/07/20 02:05:38;;;;;;;63.80;39.17;;;19.40;99.90;;;;;;5114799;28;20059;-59
2023/07/20 02:08:05;;;;;;;52.17;34.40;;;19.30;99.90;;;;;;5115071;28;20035;-59
2023/07/20 02:10:31;;;;;;;56.33;34.92;;;19.40;99.90;;;;;;5113278;28;20469;-59
2023/07/20 02:12:57;;;;;;;50.25;30.63;;;19.40;99.90;;;;;;5117307;28;20085;-59
2023/07/20 02:15:22;;;;;;;43.83;28.70;;;19.40;99.90;;;;;;5119077;28;20453;-59
2023/07/20 02:17:51;;;;;;;39.78;23.33;;;19.40;99.90;;;;;;5118918;28;20024;-59
2023/07/20 02:20:17;;;;;;;33.50;22.25;;;19.40;99.90;;;;;;5118850;28;20038;-59
2023/07/20 02:22:43;;;;;;;37.80;23.50;;;19.40;99.90;;;;;;5117576;28;20040;-59
2023/07/20 02:25:09;;;;;;;33.13;20.85;;;19.40;99.90;;;;;;5118940;28;20028;-59
2023/07/20 02:27:35;;;;;;;37.22;20.63;;;19.40;99.90;;;;;;5118741;28;20027;-59
2023/07/20 02:30:02;;;;;;;32.85;19.10;;;19.30;99.90;;;;;;5118674;28;20030;-59
2023/07/20 02:32:28;;;;;;;26.52;16.45;;;19.40;99.90;;;;;;5118731;28;20112;-59
2023/07/20 02:34:54;;;;;;;22.88;14.73;;;19.40;99.90;;;;;;5118562;28;20038;-59
2023/07/20 02:37:21;;;;;;;25.92;13.80;;;19.40;99.90;;;;;;5118545;28;20012;-59
2023/07/20 02:39:47;;;;;;;19.90;11.48;;;19.40;99.90;;;;;;5118650;28;20063;-59
2023/07/20 02:42:14;;;;;;;23.92;13.80;;;19.40;99.90;;;;;;5118410;28;20058;-59
2023/07/20 02:44:41;;;;;;;22.13;12.88;;;19.40;99.90;;;;;;5117131;28;20088;-59
2023/07/20 02:47:07;;;;;;;19.30;12.60;;;19.40;99.90;;;;;;5117031;28;20039;-59
2023/07/20 02:49:34;;;;;;;22.15;12.95;;;19.40;99.90;;;;;;5117027;28;20063;-59
2023/07/20 02:52:00;;;;;;;18.38;9.63;;;19.40;99.90;;;;;;5118131;28;20023;-59
2023/07/20 02:54:25;;;;;;;24.83;10.50;;;19.50;99.90;;;;;;5116959;28;20034;-59
2023/07/20 02:56:51;;;;;;;16.58;10.00;;;19.40;99.90;;;;;;5118193;28;20023;-59
2023/07/20 02:59:18;;;;;;;19.48;10.93;;;19.40;99.90;;;;;;5118122;28;20548;-59
2023/07/20 03:01:44;;;;;;;26.58;10.75;;;19.50;99.90;;;;;;5117978;28;20051;-59
2023/07/20 03:04:10;;;;;;;19.30;11.00;;;19.40;99.90;;;;;;5116777;28;20027;-59
2023/07/20 03:06:36;;;;;;;20.48;11.70;;;19.40;99.90;;;;;;5116701;28;20572;-59
2023/07/20 03:09:06;;;;;;;29.00;12.80;;;19.40;99.90;;;;;;5117975;28;20092;-59
2023/07/20 03:11:34;;;;;;;21.40;10.93;;;19.50;99.90;;;;;;5117761;28;20035;-59
2023/07/20 03:14:00;;;;;;;27.15;12.57;;;19.40;99.90;;;;;;5116476;28;20460;-59
2023/07/20 03:16:26;;;;;;;21.58;11.00;;;19.40;99.90;;;;;;5116413;28;20044;-59
2023/07/20 03:18:52;;;;;;;27.30;10.82;;;19.40;99.90;;;;;;5116517;28;20019;-59
2023/07/20 03:21:19;;;;;;;18.98;10.45;;;19.30;99.90;;;;;;5116345;28;20099;-59
2023/07/20 03:23:45;;;;;;;25.00;9.98;;;19.30;99.90;;;;;;5115812;28;20059;-59
2023/07/20 03:26:11;;;;;;;23.52;10.57;;;19.30;99.90;;;;;;5117766;28;20042;-59
2023/07/20 03:28:38;;;;;;;20.73;9.02;;;19.30;99.90;;;;;;5116297;28;20040;-59
2023/07/20 03:31:05;;;;;;;18.58;9.13;;;19.40;99.90;;;;;;5116102;28;20039;-59
2023/07/20 03:33:34;;;;;;;21.30;8.85;;;19.40;99.90;;;;;;5117698;28;20096;-59
2023/07/20 03:36:01;;;;;;;18.48;8.63;;;19.40;99.90;;;;;;5117322;28;20027;-59
2023/07/20 03:38:27;;;;;;;17.67;6.25;;;19.40;99.90;;;;;;5116083;28;20024;-59
2023/07/20 03:40:55;;;;;;;15.57;5.35;;;19.30;99.90;;;;;;5116055;28;20448;-59
2023/07/20 03:43:22;;;;;;;14.15;4.88;;;19.20;99.90;;;;;;5117103;28;20051;-58
2023/07/20 03:45:49;;;;;;;13.07;4.80;;;19.00;99.90;;;;;;5117367;28;20110;-59
2023/07/20 03:48:16;;;;;;;15.98;4.95;;;18.90;99.90;;;;;;5117123;28;20028;-59
2023/07/20 03:50:45;;;;;;;10.27;3.83;;;18.80;99.90;;;;;;5116937;28;20027;-59
2023/07/20 03:53:14;;;;;;;9.43;4.22;;;18.80;99.90;;;;;;5117097;27;20027;-59
2023/07/20 03:55:50;;;;;;;7.85;3.20;;;18.80;99.90;;;;;;5117037;28;20020;-59
2023/07/20 03:58:17;;;;;;;4.78;2.70;;;18.90;99.90;;;;;;5116834;28;20055;-59
2023/07/20 04:00:47;;;;;;;5.72;2.88;;;19.00;99.90;;;;;;5115317;28;20048;-59
2023/07/20 04:03:14;;;;;;;10.43;3.25;;;18.90;99.90;;;;;;5115406;28;20036;-59
2023/07/20 04:05:40;;;;;;;8.68;3.15;;;19.00;99.90;;;;;;5116892;28;20035;-59
2023/07/20 04:08:06;;;;;;;8.60;3.22;;;19.00;99.90;;;;;;5116831;28;20469;-59
2023/07/20 04:10:31;;;;;;;7.25;2.83;;;18.90;99.90;;;;;;5115160;28;20425;-59
2023/07/20 04:12:57;;;;;;;5.82;2.30;;;19.00;99.90;;;;;;5116530;28;20020;-59
2023/07/20 04:15:23;;;;;;;8.50;2.65;;;19.00;99.90;;;;;;5116712;28;20026;-58
2023/07/20 04:17:49;;;;;;;8.50;2.67;;;19.00;99.90;;;;;;5115310;28;20028;-59
2023/07/20 04:20:17;;;;;;;12.15;3.95;;;18.90;99.90;;;;;;5116453;28;20023;-59
2023/07/20 04:22:44;;;;;;;10.48;3.53;;;19.00;99.90;;;;;;5116285;28;20108;-59
2023/07/20 04:25:13;;;;;;;12.80;4.63;;;18.90;99.90;;;;;;5115054;28;20028;-58
2023/07/20 04:27:39;;;;;;;7.93;3.63;;;18.90;99.90;;;;;;5115352;28;20030;-59
2023/07/20 04:30:08;;;;;;;13.30;3.28;;;19.00;99.90;;;;;;5116312;28;20106;-59
2023/07/20 04:32:33;;;;;;;11.70;3.58;;;19.00;99.90;;;;;;5114933;28;20373;-59
2023/07/20 04:35:05;;;;;;;10.70;3.60;;;19.00;99.90;;;;;;5114150;28;20134;-59
2023/07/20 04:37:31;;;;;;;10.27;3.00;;;19.00;99.90;;;;;;5114886;28;20059;-59
2023/07/20 04:39:59;;;;;;;10.73;3.53;;;18.90;99.90;;;;;;5114686;28;20051;-58
2023/07/20 04:42:25;;;;;;;14.07;3.90;;;19.00;99.90;;;;;;5114635;28;20055;-59
2023/07/20 04:44:51;;;;;;;11.45;4.05;;;19.00;99.90;;;;;;5116121;28;20030;-59
2023/07/20 04:47:17;;;;;;;6.95;3.15;;;19.10;99.90;;;;;;5116219;28;20024;-59
2023/07/20 04:49:43;;;;;;;13.68;3.75;;;19.20;99.90;;;;;;5114697;28;20123;-59
2023/07/20 04:52:09;;;;;;;10.90;3.42;;;19.30;99.90;;;;;;5114489;28;20027;-59
2023/07/20 04:54:35;;;;;;;12.68;4.20;;;19.30;99.90;;;;;;5115812;28;20031;-58
2023/07/20 04:57:01;;;;;;;10.20;3.63;;;19.40;99.90;;;;;;5115911;28;20020;-59
2023/07/20 04:59:27;;;;;;;6.22;2.95;;;19.50;99.90;;;;;;5114359;28;20031;-59
2023/07/20 05:01:53;;;;;;;9.60;3.70;;;19.60;99.90;;;;;;5114261;28;20048;-59
2023/07/20 05:04:19;;;;;;;12.25;4.20;;;19.60;99.90;;;;;;5114267;28;20077;-58
2023/07/20 05:06:46;;;;;;;12.02;4.30;;;19.60;99.90;;;;;;5114318;28;20024;-58
2023/07/20 05:09:12;;;;;;;9.27;3.30;;;19.70;99.90;;;;;;5114236;28;20032;-58
2023/07/20 05:11:38;;;;;;;8.00;3.55;;;19.90;99.90;;;;;;5114166;28;20047;-58
2023/07/20 05:14:03;;;;;;;8.25;3.88;;;19.90;99.90;;;;;;5115456;28;20024;-58
2023/07/20 05:16:29;;;;;;;9.75;4.03;;;20.10;99.90;;;;;;5113996;28;20455;-59
2023/07/20 05:19:01;;;;;;;11.38;3.85;;;20.20;99.90;;;;;;5114082;28;20051;-59
2023/07/20 05:21:27;;;;;;;8.77;3.50;;;20.20;99.90;;;;;;5113937;28;20054;-58
2023/07/20 05:23:52;;;;;;;9.45;4.07;;;20.30;99.90;;;;;;5113701;28;20035;-58
2023/07/20 05:26:18;;;;;;;7.85;3.63;;;20.30;99.90;;;;;;5113476;28;20223;-58
2023/07/20 05:28:44;;;;;;;7.68;3.83;;;20.40;99.90;;;;;;5115928;28;20426;-58
2023/07/20 05:31:10;;;;;;;8.35;4.00;;;20.40;99.90;;;;;;5107395;28;20472;-58
2023/07/20 05:33:36;;;;;;;9.73;4.00;;;20.50;99.90;;;;;;5115830;28;20462;-59
2023/07/20 05:36:02;;;;;;;11.60;4.28;;;20.50;99.90;;;;;;5115754;28;20590;-58
2023/07/20 05:38:28;;;;;;;9.00;4.38;;;20.70;99.90;;;;;;5115778;28;20085;-58
2023/07/20 05:41:01;;;;;;;6.25;3.58;;;20.80;99.90;;;;;;5115823;28;20027;-58
2023/07/20 05:43:27;;;;;;;14.10;4.75;;;20.80;99.90;;;;;;5115768;28;20030;-58
2023/07/20 05:45:53;;;;;;;8.55;4.43;;;20.90;99.90;;;;;;5113426;28;20447;-58
2023/07/20 05:48:19;;;;;;;8.52;3.60;;;20.90;99.90;;;;;;5114257;28;20024;-58
2023/07/20 05:50:45;;;;;;;7.00;3.22;;;21.10;99.90;;;;;;5115622;28;20760;-58
2023/07/20 05:53:11;;;;;;;6.60;3.40;;;21.20;99.90;;;;;;5112456;28;20024;-58
2023/07/20 05:55:37;;;;;;;10.25;4.78;;;21.20;99.90;;;;;;5114160;28;20085;-59
2023/07/20 05:58:04;;;;;;;12.32;4.82;;;21.40;99.90;;;;;;5113955;28;20031;-58
2023/07/20 06:00:29;;;;;;;8.40;3.65;;;21.60;99.90;;;;;;5114274;28;20047;-59
2023/07/20 06:02:55;;;;;;;10.27;3.83;;;21.70;99.90;;;;;;5114678;28;20027;-58
2023/07/20 06:05:24;;;;;;;10.10;3.92;;;21.70;99.90;;;;;;5114635;28;20027;-58
2023/07/20 06:07:50;;;;;;;9.30;3.63;;;21.80;99.90;;;;;;5113220;28;20034;-58
2023/07/20 06:10:16;;;;;;;8.48;4.25;;;21.90;99.90;;;;;;5097160;28;20055;-58
2023/07/20 06:12:42;;;;;;;7.70;3.63;;;21.90;99.90;;;;;;5105327;28;20090;-58
2023/07/20 06:15:29;;;;;;;9.00;3.80;;;21.90;99.90;;;;;;5114768;28;20472;-58
2023/07/20 06:17:58;;;;;;;11.73;4.40;;;22.00;99.90;;;;;;5115321;28;20031;-58
2023/07/20 06:20:26;;;;;;;14.35;4.32;;;21.90;99.90;;;;;;5099889;28;20032;-58
2023/07/20 06:23:01;;;;;;;10.43;3.53;;;22.00;99.90;;;;;;5113312;28;20024;-58
2023/07/20 06:25:26;;;;;;;7.80;3.13;;;22.20;99.90;;;;;;5112826;28;20020;-56
2023/07/20 06:27:54;;;;;;;9.57;3.15;;;22.20;99.90;;;;;;5115009;28;20039;-56
2023/07/20 06:30:20;;;;;;;5.18;2.97;;;22.30;99.90;;;;;;5114837;28;20110;-56
2023/07/20 06:32:46;;;;;;;10.77;4.20;;;22.20;99.90;;;;;;5115011;28;20114;-56
2023/07/20 06:35:12;;;;;;;15.48;5.20;;;22.10;99.90;;;;;;5113913;28;20059;-56
2023/07/20 06:37:38;;;;;;;11.50;4.18;;;22.30;99.90;;;;;;5114082;28;20024;-56
2023/07/20 06:40:05;;;;;;;7.53;3.33;;;22.20;99.90;;;;;;5114382;28;20061;-56
2023/07/20 06:42:31;;;;;;;10.23;2.85;;;22.50;99.90;;;;;;5115152;28;20059;-56
2023/07/20 06:44:57;;;;;;;11.45;3.33;;;22.70;99.90;;;;;;5114885;28;20088;-56
2023/07/20 06:47:23;;;;;;;12.38;3.78;;;22.80;99.90;;;;;;5114954;28;20033;-56
2023/07/20 06:49:49;;;;;;;10.10;3.13;;;23.00;99.90;;;;;;5114935;28;20032;-56
2023/07/20 06:52:15;;;;;;;11.02;3.25;;;23.00;99.90;;;;;;5114883;28;20024;-56
2023/07/20 06:54:41;;;;;;;10.82;2.80;;;23.20;99.90;;;;;;5114691;28;20032;-56
2023/07/20 06:57:10;;;;;;;6.72;3.03;;;23.30;99.90;;;;;;5113017;28;20084;-56
2023/07/20 06:59:37;;;;;;;4.43;2.25;;;23.40;99.90;;;;;;5117370;28;20027;-56
2023/07/20 07:02:03;;;;;;;8.52;3.15;;;23.40;99.90;;;;;;5115347;28;20449;-56
2023/07/20 07:04:29;;;;;;;12.10;3.67;;;23.50;99.90;;;;;;5118150;28;20050;-56
2023/07/20 07:06:55;;;;;;;11.70;3.58;;;23.70;99.90;;;;;;5118519;28;20038;-56
2023/07/20 07:09:21;;;;;;;7.10;3.15;;;23.80;99.90;;;;;;5118326;28;20036;-56
2023/07/20 07:11:47;;;;;;;11.05;4.13;;;23.90;99.90;;;;;;5118247;28;20031;-56
2023/07/20 07:14:13;;;;;;;7.22;2.80;;;23.90;99.90;;;;;;5118594;28;20031;-56
2023/07/20 07:16:39;;;;;;;10.13;3.38;;;24.00;99.90;;;;;;5118103;28;20473;-56
2023/07/20 07:19:05;;;;;;;13.80;3.67;;;24.10;99.90;;;;;;5118049;28;20015;-56
2023/07/20 07:21:31;;;;;;;11.57;3.65;;;24.10;99.90;;;;;;5118055;28;20070;-57
2023/07/20 07:24:19;;;;;;;11.73;4.25;;;24.30;99.90;;;;;;5117359;28;20028;-56
2023/07/20 07:27:17;;;;;;;17.17;4.20;;;24.60;99.90;;;;;;5116943;28;20038;-56
2023/07/20 07:29:46;;;;;;;15.05;4.07;;;25.10;99.90;;;;;;5117657;28;20039;-56
2023/07/20 07:32:15;;;;;;;6.22;3.20;;;25.40;99.90;;;;;;5117940;28;20040;-56
2023/07/20 07:34:41;;;;;;;10.45;3.78;;;25.80;99.90;;;;;;5117412;28;20019;-56
2023/07/20 07:37:07;;;;;;;10.95;2.88;;;26.10;99.90;;;;;;5117637;28;20029;-57
2023/07/20 07:39:34;;;;;;;8.82;3.00;;;26.10;99.50;;;;;;5117717;28;20015;-57
2023/07/20 07:42:00;;;;;;;9.60;3.00;;;26.50;99.90;;;;;;5117474;28;20088;-57
2023/07/20 07:44:26;;;;;;;7.57;3.10;;;26.60;98.70;;;;;;5117556;28;20027;-57
2023/07/20 07:46:53;;;;;;;6.63;2.97;;;26.70;99.90;;;;;;5117788;28;20063;-57
2023/07/20 07:49:19;;;;;;;8.68;3.10;;;27.00;99.90;;;;;;5117498;28;20083;-57
2023/07/20 07:51:46;;;;;;;10.75;3.70;;;26.80;99.40;;;;;;5117468;28;20028;-58
2023/07/20 07:54:12;;;;;;;10.90;3.47;;;27.00;97.00;;;;;;5117553;28;20473;-58
2023/07/20 07:56:37;;;;;;;9.38;3.70;;;26.90;97.00;;;;;;5117736;28;20043;-58
2023/07/20 07:59:04;;;;;;;10.88;3.20;;;27.10;97.30;;;;;;5117592;28;20040;-58
2023/07/20 08:01:30;;;;;;;12.30;3.90;;;27.40;97.40;;;;;;5116962;28;20058;-58
2023/07/20 08:03:56;;;;;;;8.52;3.30;;;27.60;95.20;;;;;;5117420;28;20023;-58
2023/07/20 08:26:11;;;;;;;10.18;3.40;;;28.60;85.70;;;;;;5139438;27;20030;-58
2023/07/20 08:28:40;;;;;;;7.90;4.07;;;29.00;88.60;;;;;;5116289;27;20024;-58
2023/07/20 08:31:10;;;;;;;10.27;3.55;;;28.30;88.90;;;;;;5103263;28;20038;-58
2023/07/20 08:33:35;;;;;;;8.07;3.13;;;28.30;83.80;;;;;;5115876;28;20353;-58
2023/07/20 08:36:03;;;;;;;8.00;2.75;;;28.70;83.80;;;;;;5110474;28;20015;-58
2023/07/20 08:38:29;;;;;;;10.40;3.47;;;29.00;90.60;;;;;;5115910;28;20023;-58
2023/07/20 08:40:59;;;;;;;6.15;2.47;;;29.10;79.60;;;;;;5115242;28;20169;-58
2023/07/20 08:43:27;;;;;;;5.32;2.90;;;29.00;79.70;;;;;;5108533;28;20027;-59
2023/07/20 08:45:58;;;;;;;8.90;3.33;;;29.40;78.20;;;;;;5115679;28;20030;-58
2023/07/20 08:48:24;;;;;;;9.43;3.60;;;29.60;87.20;;;;;;5113518;28;20422;-58
2023/07/20 08:50:56;;;;;;;11.55;3.83;;;30.00;78.10;;;;;;5108782;28;20028;-58
2023/07/20 08:53:23;;;;;;;8.68;3.42;;;30.20;75.50;;;;;;5107373;28;20015;-59
2023/07/20 08:55:52;;;;;;;9.85;3.28;;;30.00;73.30;;;;;;5113582;28;20024;-59
2023/07/20 08:58:18;;;;;;;12.85;3.72;;;29.80;72.90;;;;;;5102392;28;20087;-59
2023/07/20 09:00:44;;;;;;;9.93;3.70;;;30.00;80.00;;;;;;5116249;28;20504;-58
2023/07/20 09:03:11;;;;;;;10.32;4.07;;;30.40;72.50;;;;;;5115757;28;20479;-59
2023/07/20 09:05:39;;;;;;;11.25;3.78;;;30.60;71.10;;;;;;5115647;28;20031;-59
2023/07/20 09:08:05;;;;;;;16.75;4.15;;;31.00;68.40;;;;;;5115079;28;20046;-59
2023/07/20 09:10:31;;;;;;;12.07;3.85;;;30.90;63.70;;;;;;5115223;28;20031;-59
2023/07/20 09:12:57;;;;;;;9.98;3.38;;;30.90;69.80;;;;;;5115463;28;20035;-59
2023/07/20 09:15:23;;;;;;;12.63;4.18;;;30.50;64.00;;;;;;5115339;28;20495;-59
2023/07/20 09:17:50;;;;;;;11.38;3.50;;;30.90;67.00;;;;;;5115377;28;20042;-59
2023/07/20 09:20:18;;;;;;;18.52;4.95;;;30.60;61.90;;;;;;5115100;28;20074;-58
2023/07/20 09:22:44;;;;;;;13.10;3.33;;;30.40;67.50;;;;;;5115035;28;20023;-58
2023/07/20 09:25:14;;;;;;;11.80;3.70;;;31.00;66.40;;;;;;5114976;28;20084;-58
2023/07/20 09:27:42;;;;;;;7.93;3.58;;;31.30;65.30;;;;;;5115193;28;20038;-59
2023/07/20 09:30:10;;;;;;;13.93;3.58;;;31.60;61.10;;;;;;5115076;28;20023;-59
2023/07/20 09:32:43;;;;;;;10.48;3.47;;;31.40;64.00;;;;;;5106441;28;20087;-59
2023/07/20 09:35:19;;;;;;;12.32;3.00;;;31.40;64.10;;;;;;5094687;28;20040;-58
2023/07/20 09:38:03;;;;;;;10.13;2.80;;;31.20;59.30;;;;;;5092120;28;20098;-59
2023/07/20 09:40:38;;;;;;;8.70;2.45;;;31.50;64.00;;;;;;5114970;28;20024;-59
2023/07/20 09:43:08;;;;;;;7.85;2.72;;;30.90;59.90;;;;;;5114944;28;20024;-59
2023/07/20 09:45:38;;;;;;;13.55;3.53;;;31.50;58.30;;;;;;5114872;28;20035;-59
2023/07/20 09:48:06;;;;;;;8.48;3.05;;;31.70;66.90;;;;;;5114631;28;20038;-59
2023/07/20 09:50:44;;;;;;;5.28;2.53;;;32.20;58.50;;;;;;5115312;28;20035;-59
2023/07/20 09:53:15;;;;;;;13.13;3.42;;;32.50;55.80;;;;;;5115076;28;20111;-59
2023/07/20 09:55:50;;;;;;;7.50;3.05;;;32.60;55.80;;;;;;5115049;28;20072;-59
2023/07/20 09:58:17;;;;;;;9.27;3.33;;;32.30;52.80;;;;;;5114626;28;20421;-59
2023/07/20 10:00:46;;;;;;;7.68;3.03;;;32.10;53.30;;;;;;5114601;28;20039;-58
2023/07/20 10:03:18;;;;;;;12.15;4.00;;;32.30;53.60;;;;;;5114893;28;20080;-59
2023/07/20 10:05:51;;;;;;;5.93;2.58;;;32.00;51.10;;;;;;5114592;28;20026;-59
2023/07/20 10:08:20;;;;;;;6.03;2.75;;;32.60;56.40;;;;;;5114700;28;20419;-59
2023/07/20 10:10:48;;;;;;;7.07;2.72;;;32.80;53.20;;;;;;5114502;28;20532;-59
2023/07/20 10:13:20;;;;;;;9.45;2.75;;;32.80;50.50;;;;;;5114544;28;20093;-59
2023/07/20 10:15:50;;;;;;;9.52;3.00;;;32.90;53.90;;;;;;5114393;28;20782;-59
2023/07/20 10:18:28;;;;;;;6.95;2.47;;;33.00;50.70;;;;;;5114704;28;20085;-58
2023/07/20 10:20:56;;;;;;;7.82;2.80;;;33.50;52.80;;;;;;5114479;28;20031;-59
2023/07/20 10:23:23;;;;;;;8.95;3.03;;;33.40;50.60;;;;;;5114804;28;20114;-59
2023/07/20 10:25:50;;;;;;;6.40;3.10;;;33.60;55.00;;;;;;5114558;28;20043;-60
2023/07/20 10:28:16;;;;;;;10.80;3.78;;;33.50;52.90;;;;;;5114294;28;20032;-60
2023/07/20 10:30:43;;;;;;;7.07;2.60;;;32.50;48.30;;;;;;5114300;28;20035;-59
2023/07/20 10:33:10;;;;;;;8.40;3.28;;;31.90;52.20;;;;;;5115678;28;20051;-59
2023/07/20 10:35:52;;;;;;;6.15;2.92;;;32.90;52.90;;;;;;5118454;28;20031;-59
2023/07/20 10:38:18;;;;;;;9.90;3.00;;;33.40;52.70;;;;;;5118672;28;20107;-59
2023/07/20 10:40:54;;;;;;;7.00;3.00;;;32.80;49.60;;;;;;5118420;28;20055;-59
2023/07/20 10:43:30;;;;;;;8.68;3.20;;;33.20;53.00;;;;;;5118047;28;20063;-59
2023/07/20 10:45:58;;;;;;;6.93;2.78;;;33.60;52.00;;;;;;5117493;28;20134;-59
2023/07/20 10:48:25;;;;;;;6.43;2.55;;;33.90;51.10;;;;;;5118130;28;20023;-58
2023/07/20 10:51:14;;;;;;;11.40;3.13;;;34.10;49.70;;;;;;5117883;28;20478;-59
2023/07/20 10:53:40;;;;;;;10.90;3.53;;;34.40;46.80;;;;;;5098204;28;20111;-59
2023/07/20 10:56:13;;;;;;;7.22;2.67;;;34.30;47.30;;;;;;5099330;28;20024;-59
2023/07/20 10:58:40;;;;;;;7.53;2.88;;;34.60;47.60;;;;;;5117629;28;20082;-59
2023/07/20 11:01:06;;;;;;;7.05;2.53;;;34.20;47.30;;;;;;5117561;28;20039;-59
2023/07/20 11:03:40;;;;;;;6.65;2.75;;;34.20;50.40;;;;;;5117928;28;20032;-59
2023/07/20 11:06:25;;;;;;;6.97;3.85;;;34.30;48.50;;;;;;5117803;28;20462;-58
2023/07/20 11:09:15;;;;;;;5.20;2.88;;;34.60;49.30;;;;;;5117772;28;20023;-58
2023/07/20 11:11:47;;;;;;;10.43;3.28;;;34.20;46.10;;;;;;5117530;28;20080;-59
2023/07/20 11:14:26;;;;;;;7.70;2.70;;;33.90;47.90;;;;;;5117833;28;20037;-59
2023/07/20 11:16:54;;;;;;;5.60;2.50;;;34.20;52.10;;;;;;5117710;28;20035;-58
2023/07/20 11:19:25;;;;;;;6.22;2.60;;;34.30;46.90;;;;;;5117840;28;20031;-59
2023/07/20 11:21:55;;;;;;;7.78;2.75;;;34.00;46.20;;;;;;5117466;28;20493;-58
2023/07/20 11:24:21;;;;;;;;;;;34.30;45.50;;;;;;5118867;28;20027;-58
2023/07/20 11:26:49;;;;;;;21.30;4.88;;;34.70;50.30;;;;;;5118337;28;19924;-58
2023/07/20 11:29:19;;;;;;;8.23;3.72;;;34.50;46.10;;;;;;5118205;28;20051;-58
2023/07/20 11:35:21;;;;;;;9.32;3.22;;;33.90;48.00;;;;;;5111453;28;20061;-58
2023/07/20 11:37:47;;;;;;;8.77;3.50;;;33.30;52.10;;;;;;5117440;28;20027;-58
2023/07/20 11:40:13;;;;;;;8.07;3.25;;;34.00;50.20;;;;;;5116944;28;20024;-58
2023/07/20 11:42:40;;;;;;;12.43;3.75;;;34.60;44.40;;;;;;5116899;28;20038;-58
2023/07/20 11:45:06;;;;;;;8.38;3.50;;;34.10;44.80;;;;;;5116811;28;20087;-58
2023/07/20 11:47:33;;;;;;;5.10;2.67;;;34.50;54.20;;;;;;5116972;28;20393;-58
2023/07/20 11:50:03;;;;;;;8.20;3.25;;;34.40;48.30;;;;;;5116979;28;20031;-58
2023/07/20 11:52:30;;;;;;;4.03;2.83;;;34.90;47.70;;;;;;5117021;28;20051;-58
2023/07/20 11:54:56;;;;;;;6.93;3.08;;;34.00;44.10;;;;;;5116897;28;20028;-58
2023/07/20 11:57:23;;;;;;;8.10;3.20;;;33.60;46.70;;;;;;5116595;28;20072;-58
2023/07/20 12:00:03;;;;;;;6.80;3.17;;;33.90;48.10;;;;;;5113868;28;20469;-58
2023/07/20 12:02:31;;;;;;;6.50;3.05;;;34.30;44.00;;;;;;5115893;28;20036;-58
2023/07/20 12:05:01;;;;;;;8.75;3.22;;;34.10;43.30;;;;;;5115869;28;20039;-58
2023/07/20 12:07:28;;;;;;;8.93;3.47;;;33.20;46.00;;;;;;5116417;28;20059;-58
2023/07/20 12:10:08;;;;;;;12.98;3.60;;;32.80;48.60;;;;;;5116127;28;20106;-58
2023/07/20 12:12:37;;;;;;;10.98;3.60;;;34.00;46.70;;;;;;5105889;28;20078;-58
2023/07/20 12:15:23;;;;;;;5.03;3.43;;;34.40;42.90;;;;;;5111084;28;20027;-58
2023/07/20 12:17:55;;;;;;;7.13;3.40;;;35.00;46.60;;;;;;5101491;28;20189;-58
2023/07/20 12:20:37;;;;;;;6.05;3.80;;;35.40;43.80;;;;;;5104104;27;20020;-58
2023/07/20 12:23:10;;;;;;;6.60;3.30;;;35.60;43.50;;;;;;5108622;28;20024;-58
2023/07/20 12:25:38;;;;;;;8.23;3.60;;;34.80;43.40;;;;;;5110653;28;20027;-58
2023/07/20 12:28:11;;;;;;;4.57;2.83;;;34.50;43.70;;;;;;5103375;28;20028;-58
2023/07/20 12:30:38;;;;;;;9.45;3.85;;;34.60;48.20;;;;;;5112886;28;20032;-58
2023/07/20 12:33:05;;;;;;;5.55;3.25;;;34.60;43.20;;;;;;5111371;27;20032;-58
2023/07/20 12:35:31;;;;;;;6.22;3.65;;;34.00;41.90;;;;;;5116681;27;20061;-58
2023/07/20 12:37:58;;;;;;;5.57;3.65;;;33.90;44.50;;;;;;5101248;28;20039;-58
2023/07/20 12:40:24;;;;;;;6.80;4.13;;;34.30;46.60;;;;;;5108214;28;20020;-58
2023/07/20 12:42:50;;;;;;;7.35;4.60;;;34.50;45.60;;;;;;5098156;27;20377;-58
2023/07/20 12:45:16;;;;;;;5.03;3.40;;;34.20;43.20;;;;;;5103314;28;20417;-58
2023/07/20 12:47:43;;;;;;;6.18;3.30;;;34.10;41.30;;;;;;5108359;28;20114;-58
2023/07/20 12:50:10;;;;;;;5.30;3.67;;;33.10;42.30;;;;;;5111497;28;20032;-58
2023/07/20 12:52:40;;;;;;;6.07;3.55;;;33.00;44.30;;;;;;5099640;27;20055;-58
2023/07/20 12:55:07;;;;;;;;;;;33.00;43.30;;;;;;5106380;28;20024;-59
2023/07/20 12:57:37;;;;;;;3.92;3.25;;;33.40;43.10;;;;;;5115899;27;19998;-58
2023/07/20 13:00:05;;;;;;;7.63;3.00;;;33.90;41.90;;;;;;5124420;27;20024;-58
2023/07/20 13:02:32;;;;;;;6.32;3.58;;;34.10;41.80;;;;;;5136622;27;20114;-58
2023/07/20 13:04:58;;;;;;;6.75;3.90;;;34.10;42.50;;;;;;5136835;27;20252;-58
2023/07/20 13:07:32;;;;;;;6.97;3.88;;;34.40;43.40;;;;;;5130709;27;20024;-58
2023/07/20 13:10:02;;;;;;;9.45;4.43;;;33.80;42.10;;;;;;5112263;28;20106;-58